Aviation Digital Data Service (ADDS)

Output produced by TAFs form (0949 UTC 21 April 2015)
found at http://aviationweather.gov/adds/tafs/
 
KDMN 210528Z 2106/2206 26006KT P6SM SKC 
     FM211900 24012G22KT P6SM SCT100 
     FM220300 27010KT P6SM FEW100